Aérodrome :
LOGIN :

S'inscrire | Disclaimer

   EN    FR    IT 

 










Légende :    VFR   VFR Marginal   IFR   IFR Intensif   IFR Très Intensif
Visi : 
Plafond : 
>= 8 km
>= 3000ft
5 à 8 km
1000 à 3000 ft
1500m à 5 km
500 à 1000 ft
800 à 1500m
200 à 500 ft
< 800m
< 200 ft
Symboles :   Orages  Brouillard  Fortes neiges  Fortes précipitations  Vent > 20 kt
SIGMETs :   Divers  Orages  Givrage  Turbulence  Onde Orograph.  Cendres Volcan.







- Altitude de l'aérodrome : 20 ft


EBFN - Koksijde

DERNIER METAR :
  • 211125Z 35008KT 9999 FEW025 22/12 Q1014 BLU BLU

METARs EXPIRÉS :
  • 211055Z 34010KT 9999 FEW025 22/14 Q1014 BLU BLU
  • 211025Z 34008KT 9999 FEW025 22/14 Q1013 BLU BLU
  • 210955Z 35009KT 9999 FEW025 21/14 Q1013 BLU BLU
  • 210925Z 35008KT 9999 SCT070 BKN220 21/16 Q1013 BLU BLU
  • 210855Z 34007KT 9999 BKN070 BKN220 20/14 Q1013 BLU BLU

TAF TAF EBFN
Valide du 21 à 10h jusqu'au 21 à 19h UTC


210841Z 2110/2119 35007KT 9999 BKN070
BECMG 2113/2115 SCT080
Pas de NOTAMs connus pour ce terrain.



MET'MAP, la Météo Aéronautique d'un coup d'oeil ! - Copyright ORBIFLY Décembre 2007 - Disclaimer

ORBIFLY MET'MAP TEAM :

Programmation & Développement : Alexandra Zaïnal
Conception & Développement : Baudouin d'Aumeries
Co-Programmation & Développement : Marc-Olivier Méhu
Soutien technique & logistique : Manuel Goepfert

Contact : metmap@orbifly.com




SOURCES & CREDITS :

   NOAA